Time;durP1;ratioP1;P1;durP2;ratioP2;P2;SDS_P1;SDS_P2;PMS_P1;PMS_P2;Temp;Humidity;BMP_temperature;BMP_pressure;BME280_temperature;BME280_humidity;BME280_pressure;Samples;Min_cycle;Max_cycle;Signal;HPM_P1;HPM_P2
2023/11/21 00:00:49;;;;;;;6.50;2.75;;;8.80;99.90;;;;;;4989417;28;20034;-80
2023/11/21 00:03:15;;;;;;;8.38;2.92;;;8.80;99.90;;;;;;4989913;28;20386;-80
2023/11/21 00:05:41;;;;;;;4.40;2.00;;;8.80;99.90;;;;;;4987591;28;20030;-80
2023/11/21 00:08:07;;;;;;;5.55;2.42;;;8.80;99.90;;;;;;4983668;28;20041;-80
2023/11/21 00:10:33;;;;;;;5.68;2.47;;;8.80;99.90;;;;;;4985345;28;20076;-80
2023/11/21 00:12:59;;;;;;;6.47;2.20;;;8.80;99.90;;;;;;4991266;28;20104;-80
2023/11/21 00:15:24;;;;;;;4.45;1.80;;;8.90;99.90;;;;;;4988947;28;20062;-80
2023/11/21 00:17:50;;;;;;;5.78;2.60;;;8.90;99.90;;;;;;4986608;28;20070;-80
2023/11/21 00:20:15;;;;;;;4.82;2.13;;;8.90;99.90;;;;;;4988907;28;20487;-80
2023/11/21 00:22:41;;;;;;;4.63;2.22;;;8.90;99.90;;;;;;4985321;28;20056;-80
2023/11/21 00:25:08;;;;;;;4.88;2.03;;;8.90;99.90;;;;;;4976299;28;20464;-80
2023/11/21 00:27:35;;;;;;;5.47;2.60;;;8.90;99.90;;;;;;4992914;28;20352;-80
2023/11/21 00:30:00;;;;;;;5.38;2.67;;;8.90;99.90;;;;;;4990083;28;20030;-80
2023/11/21 00:32:26;;;;;;;5.65;2.45;;;8.90;99.90;;;;;;4990274;28;20049;-80
2023/11/21 00:34:51;;;;;;;5.22;2.10;;;8.80;99.90;;;;;;4982154;28;20031;-80
2023/11/21 00:37:16;;;;;;;4.45;2.15;;;8.90;99.90;;;;;;4971385;28;20407;-80
2023/11/21 00:39:42;;;;;;;2.55;1.50;;;8.80;99.90;;;;;;4970023;28;20041;-80
2023/11/21 00:42:08;;;;;;;4.20;1.90;;;8.90;99.90;;;;;;4990672;28;20058;-80
2023/11/21 00:44:34;;;;;;;4.45;2.17;;;8.90;99.90;;;;;;4996678;28;20041;-80
2023/11/21 00:46:59;;;;;;;4.47;1.80;;;8.80;99.90;;;;;;4972320;28;20038;-80
2023/11/21 00:49:25;;;;;;;5.65;2.58;;;8.80;99.90;;;;;;4988721;28;20034;-80
2023/11/21 00:51:50;;;;;;;5.90;2.13;;;8.80;99.90;;;;;;4992419;28;20045;-80
2023/11/21 00:54:16;;;;;;;4.50;1.90;;;8.80;99.90;;;;;;4990283;28;20045;-80
2023/11/21 00:56:42;;;;;;;5.55;2.28;;;8.80;99.90;;;;;;4977514;28;20037;-80
2023/11/21 00:59:08;;;;;;;4.15;2.30;;;8.80;99.90;;;;;;4991488;28;20030;-80
2023/11/21 01:01:34;;;;;;;4.13;2.17;;;8.80;99.90;;;;;;4976334;28;20038;-80
2023/11/21 01:04:00;;;;;;;4.00;1.90;;;8.80;99.90;;;;;;4976100;28;20117;-80
2023/11/21 01:06:25;;;;;;;5.05;2.22;;;8.80;99.90;;;;;;4990645;28;20037;-80
2023/11/21 01:08:51;;;;;;;3.88;1.58;;;8.80;99.90;;;;;;4992404;28;20030;-80
2023/11/21 01:11:17;;;;;;;4.60;1.88;;;8.80;99.90;;;;;;4992669;28;20064;-80
2023/11/21 01:13:44;;;;;;;4.80;1.75;;;8.80;99.90;;;;;;4994086;28;20031;-80
2023/11/21 01:16:10;;;;;;;3.65;2.08;;;8.80;99.90;;;;;;4965702;28;20051;-80
2023/11/21 01:18:36;;;;;;;3.95;1.85;;;8.80;99.90;;;;;;4976134;28;20357;-80
2023/11/21 01:21:01;;;;;;;2.95;1.65;;;8.80;99.90;;;;;;4974048;28;20161;-80
2023/11/21 01:23:27;;;;;;;3.70;1.70;;;8.80;99.90;;;;;;4972430;28;20039;-80
2023/11/21 01:25:56;;;;;;;3.05;1.55;;;8.80;99.90;;;;;;4975069;28;20034;-80
2023/11/21 01:28:22;;;;;;;3.67;1.63;;;8.70;99.90;;;;;;4970742;28;20571;-80
2023/11/21 01:30:48;;;;;;;2.42;1.30;;;8.70;99.90;;;;;;4968444;28;20038;-81
2023/11/21 01:33:15;;;;;;;3.80;1.52;;;8.70;99.90;;;;;;4972805;28;20042;-80
2023/11/21 01:35:41;;;;;;;4.50;2.15;;;8.70;99.90;;;;;;4974000;28;20031;-80
2023/11/21 01:38:08;;;;;;;3.65;1.58;;;8.60;99.90;;;;;;4972096;28;20049;-80
2023/11/21 01:40:33;;;;;;;5.20;2.10;;;8.50;99.90;;;;;;4972269;28;20057;-80
2023/11/21 01:42:59;;;;;;;3.47;1.55;;;8.50;99.90;;;;;;4977734;28;20487;-80
2023/11/21 01:45:25;;;;;;;3.22;1.60;;;8.50;99.90;;;;;;4973053;28;20577;-80
2023/11/21 01:47:51;;;;;;;4.10;1.70;;;8.40;99.90;;;;;;4970152;28;20042;-80
2023/11/21 01:50:18;;;;;;;3.97;1.58;;;8.40;99.90;;;;;;4971517;28;20042;-80
2023/11/21 01:52:45;;;;;;;5.20;2.10;;;8.40;99.90;;;;;;4971659;28;20031;-80
2023/11/21 01:55:12;;;;;;;6.47;2.45;;;8.30;99.90;;;;;;4965926;28;20457;-80
2023/11/21 01:57:38;;;;;;;5.28;1.77;;;8.30;99.90;;;;;;4970705;28;20432;-80
2023/11/21 02:00:15;;;;;;;5.13;2.25;;;8.30;99.90;;;;;;4972987;28;20090;-80
2023/11/21 02:02:42;;;;;;;5.30;2.13;;;8.20;99.90;;;;;;4973224;28;20042;-80
2023/11/21 02:05:08;;;;;;;3.67;1.90;;;8.20;99.90;;;;;;4966813;28;20062;-80
2023/11/21 02:07:35;;;;;;;6.05;2.65;;;8.10;99.90;;;;;;4971106;28;20026;-80
2023/11/21 02:10:00;;;;;;;5.78;2.20;;;8.00;99.90;;;;;;4970858;28;20061;-81
2023/11/21 02:12:26;;;;;;;6.93;3.20;;;7.90;99.90;;;;;;4973361;28;20031;-80
2023/11/21 02:14:52;;;;;;;7.53;2.50;;;7.90;99.90;;;;;;4973986;28;20050;-80
2023/11/21 02:17:18;;;;;;;6.70;2.75;;;7.80;99.90;;;;;;4992885;28;20033;-80
2023/11/21 02:19:44;;;;;;;6.88;2.63;;;7.80;99.90;;;;;;4991995;28;20045;-81
2023/11/21 02:22:11;;;;;;;7.10;2.55;;;7.70;99.90;;;;;;4967119;28;20379;-80
2023/11/21 02:24:37;;;;;;;5.45;2.28;;;7.60;99.90;;;;;;4990866;28;20376;-80
2023/11/21 02:27:02;;;;;;;5.10;2.30;;;7.60;99.90;;;;;;4989548;28;20042;-81
2023/11/21 02:29:28;;;;;;;5.28;2.78;;;7.60;99.90;;;;;;4989528;28;20501;-80
2023/11/21 02:31:55;;;;;;;5.68;2.53;;;7.50;99.90;;;;;;4991926;28;20074;-80
2023/11/21 02:34:21;;;;;;;5.82;2.78;;;7.50;99.90;;;;;;4973415;28;20046;-80
2023/11/21 02:36:49;;;;;;;5.40;2.58;;;7.50;99.90;;;;;;4967991;28;20031;-81
2023/11/21 02:39:15;;;;;;;7.25;3.53;;;7.40;99.90;;;;;;4990095;28;20081;-79
2023/11/21 02:41:40;;;;;;;6.80;3.38;;;7.40;99.90;;;;;;4973957;28;20035;-80
2023/11/21 02:44:06;;;;;;;5.88;2.78;;;7.30;99.90;;;;;;4986679;28;20049;-80
2023/11/21 02:46:36;;;;;;;7.43;3.20;;;7.30;99.90;;;;;;4990670;28;20033;-80
2023/11/21 02:49:09;;;;;;;5.90;2.85;;;7.20;99.90;;;;;;4987217;28;20412;-81
2023/11/21 02:51:35;;;;;;;6.90;2.92;;;7.20;99.90;;;;;;4987750;28;20026;-81
2023/11/21 02:54:03;;;;;;;5.72;2.92;;;7.20;99.90;;;;;;4991257;28;20479;-81
2023/11/21 02:56:29;;;;;;;6.95;2.80;;;7.10;99.90;;;;;;4991588;28;20033;-81
2023/11/21 02:58:59;;;;;;;6.68;2.80;;;7.10;99.90;;;;;;4991166;28;20121;-80
2023/11/21 03:01:25;;;;;;;7.68;3.38;;;7.00;99.90;;;;;;4992025;28;20030;-80
2023/11/21 03:03:53;;;;;;;7.07;3.42;;;7.00;99.90;;;;;;4992026;28;20487;-80
2023/11/21 03:06:19;;;;;;;6.43;3.35;;;7.00;99.90;;;;;;4967216;28;20522;-81
2023/11/21 03:08:45;;;;;;;5.60;2.95;;;7.00;99.90;;;;;;4987550;28;20069;-80
2023/11/21 03:11:10;;;;;;;6.70;3.53;;;7.00;99.90;;;;;;4992314;28;20491;-81
2023/11/21 03:13:36;;;;;;;7.63;3.58;;;7.00;99.90;;;;;;4977945;28;20467;-81
2023/11/21 03:16:01;;;;;;;7.45;3.80;;;6.90;99.90;;;;;;4972442;28;20074;-80
2023/11/21 03:18:29;;;;;;;7.50;3.80;;;6.90;99.90;;;;;;4990281;28;20049;-80
2023/11/21 03:20:54;;;;;;;8.13;3.65;;;6.90;99.90;;;;;;4967523;28;20434;-80
2023/11/21 03:23:20;;;;;;;7.93;3.45;;;6.90;99.90;;;;;;4972148;28;20070;-80
2023/11/21 03:25:45;;;;;;;5.50;3.17;;;6.80;99.90;;;;;;4991413;28;20037;-81
2023/11/21 03:28:11;;;;;;;4.95;3.05;;;6.70;99.90;;;;;;4988479;28;20046;-81
2023/11/21 03:30:36;;;;;;;5.13;2.45;;;6.60;99.90;;;;;;4990290;28;20066;-81
2023/11/21 03:33:02;;;;;;;4.85;2.15;;;6.60;99.90;;;;;;4988176;28;20053;-81
2023/11/21 03:35:27;;;;;;;5.00;2.97;;;6.50;99.90;;;;;;4988633;28;20078;-80
2023/11/21 03:37:53;;;;;;;5.20;2.30;;;6.30;99.90;;;;;;4985688;28;20049;-81
2023/11/21 03:40:18;;;;;;;4.57;2.05;;;6.30;99.90;;;;;;4990013;28;20360;-81
2023/11/21 03:42:44;;;;;;;5.03;2.95;;;6.20;99.90;;;;;;4991608;28;20061;-81
2023/11/21 03:45:10;;;;;;;4.82;2.53;;;6.20;99.90;;;;;;4987650;28;20030;-81
2023/11/21 03:47:37;;;;;;;5.57;2.78;;;6.20;99.90;;;;;;4984300;28;20407;-81
2023/11/21 03:50:03;;;;;;;5.32;2.35;;;6.20;99.90;;;;;;4988909;28;20484;-81
2023/11/21 03:52:28;;;;;;;5.25;2.47;;;6.10;99.90;;;;;;4970042;28;20387;-80
2023/11/21 03:54:55;;;;;;;5.28;2.60;;;6.10;99.90;;;;;;4992406;28;20053;-81
2023/11/21 03:57:21;;;;;;;4.35;2.22;;;6.20;99.90;;;;;;4972568;28;20027;-80
2023/11/21 03:59:46;;;;;;;5.03;2.63;;;6.10;99.90;;;;;;4988889;28;20119;-81
2023/11/21 04:02:12;;;;;;;5.40;2.42;;;6.20;99.90;;;;;;4990787;28;20113;-81
2023/11/21 04:04:38;;;;;;;4.35;2.33;;;6.20;99.90;;;;;;4988560;28;20041;-81
2023/11/21 04:07:04;;;;;;;5.32;2.55;;;6.20;99.90;;;;;;4984607;28;20062;-80
2023/11/21 04:09:29;;;;;;;5.47;2.50;;;6.20;99.90;;;;;;4990918;28;20096;-81
2023/11/21 04:11:55;;;;;;;5.70;2.50;;;6.20;99.90;;;;;;4991595;28;20026;-81
2023/11/21 04:14:22;;;;;;;5.47;2.50;;;6.20;99.90;;;;;;4972250;28;20038;-81
2023/11/21 04:16:48;;;;;;;4.63;2.35;;;6.10;99.90;;;;;;4991303;28;20463;-81
2023/11/21 04:19:14;;;;;;;4.70;2.17;;;6.10;99.90;;;;;;4988662;28;20038;-81
2023/11/21 04:21:41;;;;;;;4.05;2.30;;;6.10;99.90;;;;;;4989350;28;20115;-81
2023/11/21 04:24:07;;;;;;;4.45;2.30;;;6.10;99.90;;;;;;4972938;28;20033;-81
2023/11/21 04:26:32;;;;;;;4.72;2.53;;;6.10;99.90;;;;;;4996180;28;20084;-81
2023/11/21 04:28:58;;;;;;;8.82;3.03;;;6.10;99.90;;;;;;4995311;28;20472;-80
2023/11/21 04:31:24;;;;;;;4.90;2.03;;;6.00;99.90;;;;;;4994714;28;20084;-80
2023/11/21 04:33:49;;;;;;;3.38;1.98;;;6.00;99.90;;;;;;4993891;28;20472;-80
2023/11/21 04:36:14;;;;;;;3.80;2.03;;;5.90;99.90;;;;;;4992801;28;20114;-81
2023/11/21 04:38:40;;;;;;;3.85;1.77;;;5.90;99.90;;;;;;4994236;28;20485;-80
2023/11/21 04:41:06;;;;;;;5.10;2.42;;;5.90;99.90;;;;;;4997051;28;20029;-81
2023/11/21 04:43:31;;;;;;;3.80;1.98;;;5.80;99.90;;;;;;4993428;28;20039;-81
2023/11/21 04:45:57;;;;;;;3.95;2.10;;;5.80;99.90;;;;;;4985379;28;20035;-81
2023/11/21 04:48:22;;;;;;;5.55;2.80;;;5.80;99.90;;;;;;4992576;28;20034;-80
2023/11/21 04:50:48;;;;;;;5.05;2.55;;;5.80;99.90;;;;;;4976547;28;20041;-81
2023/11/21 04:53:14;;;;;;;4.03;2.25;;;5.80;99.90;;;;;;4993696;28;20034;-81
2023/11/21 04:55:43;;;;;;;5.13;2.42;;;5.70;99.90;;;;;;4994443;28;20030;-81
2023/11/21 04:58:09;;;;;;;4.30;2.30;;;5.70;99.90;;;;;;4991104;28;20027;-81
2023/11/21 05:00:36;;;;;;;5.10;2.47;;;5.70;99.90;;;;;;4970154;28;20459;-80
2023/11/21 05:03:02;;;;;;;5.10;2.30;;;5.70;99.90;;;;;;4992570;28;20054;-80
2023/11/21 05:05:27;;;;;;;5.85;3.40;;;5.70;99.90;;;;;;4992536;28;20497;-80
2023/11/21 05:07:56;;;;;;;4.70;2.35;;;5.70;99.90;;;;;;4992917;28;20034;-81
2023/11/21 05:10:22;;;;;;;5.32;2.38;;;5.70;99.90;;;;;;4989971;28;20483;-80
2023/11/21 05:12:49;;;;;;;6.78;3.20;;;5.60;99.90;;;;;;4991734;28;20096;-81
2023/11/21 05:15:16;;;;;;;6.75;2.53;;;5.60;99.90;;;;;;4991107;28;20615;-81
2023/11/21 05:17:42;;;;;;;3.92;1.95;;;5.60;99.90;;;;;;4989384;28;20034;-81
2023/11/21 05:20:09;;;;;;;5.28;2.78;;;5.60;99.90;;;;;;4993514;28;20560;-81
2023/11/21 05:22:35;;;;;;;5.35;2.63;;;5.60;99.90;;;;;;4973553;28;20093;-81
2023/11/21 05:25:03;;;;;;;6.35;2.92;;;5.60;99.90;;;;;;4995531;28;20023;-80
2023/11/21 05:27:29;;;;;;;5.75;2.53;;;5.70;99.90;;;;;;4997069;28;20122;-77
2023/11/21 05:29:55;;;;;;;3.88;2.13;;;5.70;99.90;;;;;;4987110;28;20035;-76
2023/11/21 05:32:20;;;;;;;6.43;3.58;;;5.70;99.90;;;;;;4985233;28;20046;-75
2023/11/21 05:34:47;;;;;;;4.68;2.70;;;5.70;99.90;;;;;;4972230;28;20415;-76
2023/11/21 05:37:12;;;;;;;6.88;2.88;;;5.70;99.90;;;;;;4989072;28;20503;-75
2023/11/21 05:39:37;;;;;;;4.15;2.25;;;5.60;99.90;;;;;;4993506;28;20034;-75
2023/11/21 05:42:03;;;;;;;6.15;2.97;;;5.60;99.90;;;;;;4991886;28;20383;-75
2023/11/21 05:44:29;;;;;;;7.80;2.95;;;5.60;99.90;;;;;;4973102;28;20040;-75
2023/11/21 05:46:54;;;;;;;6.03;2.95;;;5.50;99.90;;;;;;4987915;28;20088;-75
2023/11/21 05:49:23;;;;;;;5.90;2.90;;;5.50;99.90;;;;;;4987246;28;20038;-75
2023/11/21 05:51:48;;;;;;;6.57;3.22;;;5.50;99.90;;;;;;4991297;28;20038;-75
2023/11/21 05:54:14;;;;;;;6.22;2.92;;;5.50;99.90;;;;;;4970852;28;20039;-75
2023/11/21 05:56:39;;;;;;;7.53;3.08;;;5.40;99.90;;;;;;4971400;28;20543;-75
2023/11/21 05:59:06;;;;;;;7.47;2.85;;;5.40;99.90;;;;;;4984977;28;20034;-75
2023/11/21 06:01:31;;;;;;;5.30;2.85;;;5.40;99.90;;;;;;4987881;28;20034;-75
2023/11/21 06:03:57;;;;;;;5.65;2.80;;;5.50;99.90;;;;;;4990463;28;20476;-75
2023/11/21 06:06:24;;;;;;;5.93;3.00;;;5.50;99.90;;;;;;4993522;28;20057;-75
2023/11/21 06:08:50;;;;;;;6.22;2.80;;;5.60;99.90;;;;;;4987523;28;20077;-75
2023/11/21 06:11:16;;;;;;;6.10;3.10;;;5.60;99.90;;;;;;4986999;28;20506;-75
2023/11/21 06:13:41;;;;;;;5.75;2.92;;;5.60;99.90;;;;;;4992178;28;20030;-75
2023/11/21 06:16:07;;;;;;;5.05;2.47;;;5.60;99.90;;;;;;4983404;28;20051;-75
2023/11/21 06:18:33;;;;;;;5.60;3.00;;;5.60;99.90;;;;;;4988714;28;20034;-75
2023/11/21 06:21:00;;;;;;;5.68;2.58;;;5.60;99.90;;;;;;4988160;28;20486;-75
2023/11/21 06:23:26;;;;;;;6.45;2.90;;;5.70;99.90;;;;;;4990282;28;20030;-75
2023/11/21 06:25:51;;;;;;;8.88;3.00;;;5.70;99.90;;;;;;4984725;28;20043;-75
2023/11/21 06:28:17;;;;;;;5.28;2.63;;;5.70;99.90;;;;;;4981730;28;20038;-75
2023/11/21 06:30:44;;;;;;;8.13;3.33;;;5.70;99.90;;;;;;4982763;28;20124;-75
2023/11/21 06:33:11;;;;;;;5.63;2.75;;;5.80;99.90;;;;;;4986293;28;20026;-77
2023/11/21 06:35:36;;;;;;;6.30;2.97;;;5.80;99.90;;;;;;4991076;28;20041;-76
2023/11/21 06:38:02;;;;;;;7.15;3.38;;;5.70;99.90;;;;;;4987667;28;20105;-77
2023/11/21 06:40:28;;;;;;;5.82;2.88;;;5.70;99.90;;;;;;4990707;28;20026;-76
2023/11/21 06:42:53;;;;;;;6.25;3.10;;;5.80;99.90;;;;;;4986626;28;20053;-77
2023/11/21 06:45:20;;;;;;;5.65;2.70;;;5.70;99.90;;;;;;4984387;28;20040;-76
2023/11/21 06:47:45;;;;;;;4.47;2.42;;;5.60;99.90;;;;;;4980391;28;20027;-79
2023/11/21 06:50:11;;;;;;;5.70;2.80;;;5.70;99.90;;;;;;4988335;28;20070;-75
2023/11/21 06:52:36;;;;;;;6.78;3.15;;;5.70;99.90;;;;;;4986263;28;20053;-76
2023/11/21 06:55:02;;;;;;;5.53;3.10;;;5.70;99.90;;;;;;4991219;28;20034;-76
2023/11/21 06:57:27;;;;;;;5.47;2.90;;;5.70;99.90;;;;;;4986309;28;20039;-76
2023/11/21 06:59:53;;;;;;;6.07;3.10;;;5.70;99.90;;;;;;4987600;28;20034;-76
2023/11/21 07:02:18;;;;;;;6.20;3.38;;;5.60;99.90;;;;;;4986682;28;20475;-78
2023/11/21 07:04:47;;;;;;;6.43;3.38;;;5.60;99.90;;;;;;4995096;28;20030;-76
2023/11/21 07:07:12;;;;;;;6.03;2.90;;;5.60;99.90;;;;;;4987409;28;20039;-75
2023/11/21 07:09:38;;;;;;;6.05;2.83;;;5.60;99.90;;;;;;4984053;28;20419;-76
2023/11/21 07:12:07;;;;;;;6.72;2.80;;;5.60;99.90;;;;;;4970981;28;20038;-76
2023/11/21 07:14:33;;;;;;;5.85;2.85;;;5.60;99.90;;;;;;4993755;28;20169;-76
2023/11/21 07:16:58;;;;;;;6.63;2.45;;;5.60;99.90;;;;;;4987779;28;20037;-76
2023/11/21 07:19:24;;;;;;;7.18;2.67;;;5.70;99.90;;;;;;4972065;28;20042;-76
2023/11/21 07:21:53;;;;;;;6.40;3.35;;;5.60;99.90;;;;;;4987698;28;20025;-76
2023/11/21 07:24:18;;;;;;;5.43;2.90;;;5.60;99.90;;;;;;4980611;28;20054;-76
2023/11/21 07:26:44;;;;;;;7.03;3.25;;;5.70;99.90;;;;;;4984107;28;20061;-76
2023/11/21 07:29:11;;;;;;;6.88;3.35;;;5.70;99.90;;;;;;4990395;28;20041;-76
2023/11/21 07:31:38;;;;;;;5.55;2.53;;;5.70;99.90;;;;;;4987371;28;20046;-76
2023/11/21 07:34:03;;;;;;;6.78;3.40;;;5.70;99.90;;;;;;4988274;28;20042;-76
2023/11/21 07:36:29;;;;;;;5.82;2.80;;;5.70;99.90;;;;;;4968102;28;20027;-76
2023/11/21 07:38:54;;;;;;;6.45;3.15;;;5.70;99.90;;;;;;4989488;28;20046;-76
2023/11/21 07:41:20;;;;;;;5.32;2.72;;;5.70;99.90;;;;;;4989299;28;20026;-76
2023/11/21 07:43:46;;;;;;;4.32;2.50;;;5.70;99.90;;;;;;4981320;28;20379;-76
2023/11/21 07:46:12;;;;;;;5.00;2.63;;;5.70;99.90;;;;;;4987828;28;20042;-76
2023/11/21 07:48:39;;;;;;;6.00;3.15;;;5.70;99.90;;;;;;4988290;28;20043;-74
2023/11/21 07:51:05;;;;;;;6.38;3.55;;;5.80;99.90;;;;;;4988993;28;20523;-75
2023/11/21 07:53:31;;;;;;;6.65;2.80;;;5.80;99.90;;;;;;4991563;28;20102;-75
2023/11/21 07:55:57;;;;;;;6.68;2.72;;;5.80;99.90;;;;;;4987569;28;20059;-74
2023/11/21 07:58:23;;;;;;;7.57;3.33;;;5.80;99.90;;;;;;4987496;28;20085;-74
2023/11/21 08:00:49;;;;;;;6.15;2.90;;;5.90;99.90;;;;;;4986829;28;20022;-74
2023/11/21 08:03:15;;;;;;;5.53;2.45;;;5.90;99.90;;;;;;4987768;28;20112;-75
2023/11/21 08:05:41;;;;;;;3.70;2.03;;;5.90;99.90;;;;;;4987462;28;20650;-75
2023/11/21 08:08:07;;;;;;;4.72;2.60;;;6.00;99.90;;;;;;4982409;28;20093;-75
2023/11/21 08:10:33;;;;;;;6.00;3.10;;;6.00;99.90;;;;;;4985843;28;20085;-75
2023/11/21 08:12:58;;;;;;;4.63;2.53;;;6.10;99.90;;;;;;4989731;28;20034;-75
2023/11/21 08:15:24;;;;;;;6.30;2.95;;;6.10;99.90;;;;;;4989318;28;20073;-75
2023/11/21 08:17:49;;;;;;;5.35;2.65;;;6.10;99.90;;;;;;4990017;28;20429;-75
2023/11/21 08:20:16;;;;;;;5.93;2.92;;;6.10;99.90;;;;;;4990359;28;20467;-75
2023/11/21 08:22:42;;;;;;;6.78;2.63;;;6.10;99.90;;;;;;4988352;28;20478;-75
2023/11/21 08:25:08;;;;;;;5.93;2.95;;;6.10;99.90;;;;;;4984056;28;20121;-77
2023/11/21 08:27:40;;;;;;;5.50;3.13;;;6.10;99.90;;;;;;4987686;28;20165;-77
2023/11/21 08:30:07;;;;;;;5.97;2.70;;;6.20;99.90;;;;;;4980024;28;20054;-77
2023/11/21 08:32:33;;;;;;;5.90;2.60;;;6.30;99.90;;;;;;4985326;28;20022;-77
2023/11/21 08:34:59;;;;;;;5.95;2.83;;;6.30;99.90;;;;;;4987996;28;20037;-77
2023/11/21 08:37:26;;;;;;;5.20;2.72;;;6.30;99.90;;;;;;4987160;28;20388;-77
2023/11/21 08:39:52;;;;;;;5.13;2.72;;;6.30;99.90;;;;;;4990606;28;20018;-77
2023/11/21 08:42:18;;;;;;;5.55;3.17;;;6.40;99.90;;;;;;4989499;28;20483;-77
2023/11/21 08:44:44;;;;;;;5.28;2.47;;;6.40;99.90;;;;;;4988177;28;20117;-77
2023/11/21 08:47:09;;;;;;;6.68;2.95;;;6.50;99.90;;;;;;4986397;28;20031;-77
2023/11/21 08:49:35;;;;;;;7.47;2.63;;;6.50;99.90;;;;;;4989474;28;20037;-77
2023/11/21 08:52:00;;;;;;;6.43;3.25;;;6.60;99.90;;;;;;4988431;28;20034;-77
2023/11/21 08:54:26;;;;;;;7.63;3.65;;;6.70;99.90;;;;;;4978768;28;20061;-77
2023/11/21 08:56:52;;;;;;;6.32;3.38;;;6.70;99.90;;;;;;4986078;28;20030;-77
2023/11/21 08:59:19;;;;;;;5.35;3.08;;;6.70;99.90;;;;;;4976309;28;20062;-76
2023/11/21 09:01:45;;;;;;;7.05;3.35;;;6.70;99.90;;;;;;4983245;28;20034;-77
2023/11/21 09:04:10;;;;;;;5.90;2.85;;;6.80;99.90;;;;;;4971659;28;20027;-77
2023/11/21 09:06:36;;;;;;;5.60;3.03;;;6.70;99.90;;;;;;4986252;28;20053;-77
2023/11/21 09:09:01;;;;;;;6.10;3.38;;;6.80;99.90;;;;;;4985443;28;20387;-76
2023/11/21 09:11:33;;;;;;;5.82;3.05;;;6.80;99.90;;;;;;4990530;28;20040;-77
2023/11/21 09:13:59;;;;;;;7.22;3.42;;;6.80;99.90;;;;;;5000635;28;20407;-76
2023/11/21 09:16:24;;;;;;;6.38;3.13;;;6.80;99.90;;;;;;4961374;28;20087;-75
2023/11/21 09:18:50;;;;;;;6.18;3.30;;;6.80;99.90;;;;;;4990099;28;20656;-75
2023/11/21 09:21:15;;;;;;;5.90;2.92;;;6.80;99.90;;;;;;4992000;28;20291;-76
2023/11/21 09:23:42;;;;;;;7.85;3.30;;;6.90;99.90;;;;;;4991074;28;20058;-76
2023/11/21 09:26:08;;;;;;;6.20;2.92;;;7.00;99.90;;;;;;4992720;28;20045;-76
2023/11/21 09:28:34;;;;;;;7.35;3.70;;;7.00;99.90;;;;;;4991122;28;20045;-76
2023/11/21 09:31:03;;;;;;;7.05;3.05;;;6.90;99.80;;;;;;4991012;28;20129;-76
2023/11/21 09:33:30;;;;;;;5.88;2.75;;;7.00;99.80;;;;;;4986552;28;20043;-76
2023/11/21 09:35:55;;;;;;;6.90;3.65;;;7.10;99.80;;;;;;4972638;28;20382;-76
2023/11/21 09:38:21;;;;;;;7.13;3.10;;;7.10;99.70;;;;;;4989593;28;20047;-76
2023/11/21 09:40:46;;;;;;;6.82;2.67;;;7.20;99.80;;;;;;4992443;28;20379;-76
2023/11/21 09:43:17;;;;;;;6.40;3.15;;;7.20;99.80;;;;;;4992047;28;20038;-76
2023/11/21 09:45:46;;;;;;;6.03;3.03;;;7.20;99.70;;;;;;4969584;28;20052;-75
2023/11/21 09:48:13;;;;;;;7.65;3.55;;;7.20;99.60;;;;;;4989912;28;20472;-76
2023/11/21 09:50:41;;;;;;;6.07;2.88;;;7.20;99.50;;;;;;4990688;28;20054;-76
2023/11/21 09:53:23;;;;;;;6.55;3.03;;;7.20;99.50;;;;;;4987425;28;20038;-76
2023/11/21 09:55:54;;;;;;;6.63;2.70;;;7.20;99.30;;;;;;4971821;28;20452;-76
2023/11/21 09:58:21;;;;;;;5.15;2.40;;;7.30;99.30;;;;;;4983960;28;20118;-76
2023/11/21 10:00:49;;;;;;;5.80;2.80;;;7.30;99.30;;;;;;4978808;28;20125;-77
2023/11/21 10:03:15;;;;;;;5.13;2.45;;;7.40;99.20;;;;;;4982856;28;20359;-79
2023/11/21 10:05:43;;;;;;;6.05;2.88;;;7.50;99.20;;;;;;4971837;28;20026;-76
2023/11/21 10:08:10;;;;;;;6.05;3.00;;;7.50;98.90;;;;;;4990474;28;20452;-74
2023/11/21 10:10:38;;;;;;;6.20;2.95;;;7.50;98.70;;;;;;4993442;28;20035;-76
2023/11/21 10:13:07;;;;;;;5.47;3.03;;;7.50;98.30;;;;;;4989783;28;20042;-76
2023/11/21 10:15:34;;;;;;;5.40;2.33;;;7.70;98.60;;;;;;4985923;28;20042;-76
2023/11/21 10:18:06;;;;;;;5.90;3.05;;;7.70;98.70;;;;;;4988953;28;20034;-76
2023/11/21 10:20:33;;;;;;;5.07;2.65;;;7.60;98.20;;;;;;4988322;28;20085;-76
2023/11/21 10:23:02;;;;;;;4.78;2.58;;;7.60;98.00;;;;;;4988462;28;20050;-76
2023/11/21 10:25:28;;;;;;;3.95;2.17;;;7.50;97.20;;;;;;4990534;28;20026;-76
2023/11/21 10:28:00;;;;;;;5.65;2.88;;;7.50;97.50;;;;;;4991464;28;20114;-76
2023/11/21 10:30:33;;;;;;;5.45;2.47;;;7.60;97.40;;;;;;4989546;28;20030;-76
2023/11/21 10:33:00;;;;;;;3.78;1.80;;;7.60;97.70;;;;;;4990277;28;20432;-76
2023/11/21 10:35:46;;;;;;;4.05;2.03;;;7.50;96.80;;;;;;4991117;28;20030;-76
2023/11/21 10:38:13;;;;;;;5.40;2.17;;;7.60;97.30;;;;;;4988095;28;20046;-76
2023/11/21 10:40:42;;;;;;;4.38;2.38;;;7.70;97.20;;;;;;4992181;28;20033;-76
2023/11/21 10:43:15;;;;;;;4.63;1.95;;;7.70;97.30;;;;;;4987759;28;20049;-76
2023/11/21 10:45:42;;;;;;;5.03;2.38;;;7.70;97.00;;;;;;4985554;28;20370;-76
2023/11/21 10:48:08;;;;;;;5.07;2.05;;;7.80;97.50;;;;;;4984731;28;20034;-76
2023/11/21 10:50:35;;;;;;;4.05;1.98;;;7.70;97.30;;;;;;4987594;28;20038;-76
2023/11/21 10:53:03;;;;;;;5.40;2.10;;;7.70;97.50;;;;;;4980992;28;20034;-75
2023/11/21 10:55:29;;;;;;;4.10;1.90;;;7.60;97.40;;;;;;4996943;28;20033;-75
2023/11/21 10:57:59;;;;;;;2.78;1.80;;;7.60;97.30;;;;;;4990514;28;20022;-75
2023/11/21 11:00:27;;;;;;;4.50;2.20;;;7.60;97.50;;;;;;4986408;28;20030;-75
2023/11/21 11:02:56;;;;;;;3.35;1.67;;;7.50;97.20;;;;;;4981417;28;20265;-75
2023/11/21 11:05:29;;;;;;;4.10;1.85;;;7.50;97.20;;;;;;4979073;28;20030;-75
2023/11/21 11:08:07;;;;;;;2.95;1.60;;;7.50;97.10;;;;;;4987662;28;20030;-75
2023/11/21 11:10:33;;;;;;;3.75;2.28;;;7.60;97.00;;;;;;4986420;28;20038;-76
2023/11/21 11:12:59;;;;;;;4.15;2.10;;;7.70;97.20;;;;;;4991472;28;20037;-75
2023/11/21 11:15:26;;;;;;;3.50;1.70;;;7.80;97.50;;;;;;4987182;28;20047;-75
2023/11/21 11:17:56;;;;;;;2.58;1.48;;;7.80;97.20;;;;;;4996706;28;20037;-75
2023/11/21 11:20:23;;;;;;;3.30;1.60;;;7.90;97.10;;;;;;4984761;28;20026;-75
2023/11/21 11:23:01;;;;;;;3.50;2.05;;;8.00;96.90;;;;;;4985007;28;20124;-75
2023/11/21 11:26:09;;;;;;;4.60;1.88;;;8.10;96.90;;;;;;4987419;28;20384;-76
2023/11/21 11:29:03;;;;;;;2.65;1.38;;;8.10;96.70;;;;;;4989230;28;20038;-76
2023/11/21 11:31:45;;;;;;;2.58;1.63;;;8.10;96.90;;;;;;4980875;28;20101;-76
2023/11/21 11:34:31;;;;;;;4.88;1.80;;;8.10;96.50;;;;;;4986630;28;20034;-75
2023/11/21 11:37:03;;;;;;;3.35;1.83;;;8.10;96.60;;;;;;4989139;28;20034;-75
2023/11/21 11:39:36;;;;;;;1.73;1.15;;;8.00;95.80;;;;;;4988743;28;20467;-76
2023/11/21 11:42:04;;;;;;;3.28;1.45;;;8.00;96.40;;;;;;4990498;28;20018;-76
2023/11/21 11:44:45;;;;;;;3.28;1.63;;;8.00;96.70;;;;;;4988079;28;20030;-77
2023/11/21 11:47:14;;;;;;;2.65;1.58;;;8.00;96.70;;;;;;4989751;28;20091;-76
2023/11/21 11:50:12;;;;;;;3.50;1.63;;;8.00;96.40;;;;;;4990515;28;20126;-76
2023/11/21 11:52:40;;;;;;;2.85;1.40;;;8.00;96.50;;;;;;4983997;28;20043;-75
2023/11/21 11:55:09;;;;;;;3.13;1.63;;;8.10;96.40;;;;;;4988427;28;20460;-75
2023/11/21 11:57:35;;;;;;;2.35;1.65;;;8.00;95.90;;;;;;4982201;28;20029;-76
2023/11/21 12:00:24;;;;;;;3.25;1.60;;;8.00;96.00;;;;;;4987321;28;20030;-76
2023/11/21 12:02:56;;;;;;;3.88;1.83;;;8.00;96.20;;;;;;4987877;28;20041;-76
2023/11/21 12:05:23;;;;;;;4.68;1.90;;;7.90;96.20;;;;;;4990364;28;20090;-75
2023/11/21 12:07:52;;;;;;;5.32;2.13;;;8.00;96.30;;;;;;4990635;28;20037;-76
2023/11/21 12:10:20;;;;;;;2.95;1.58;;;8.00;96.70;;;;;;4990871;28;20157;-76
2023/11/21 12:12:48;;;;;;;2.85;1.38;;;8.00;96.60;;;;;;4989316;28;20026;-75
2023/11/21 12:15:13;;;;;;;2.75;1.17;;;7.80;96.00;;;;;;4971102;28;20093;-76
2023/11/21 12:17:46;;;;;;;2.58;1.23;;;7.70;95.90;;;;;;4987653;28;20066;-75
2023/11/21 12:20:17;;;;;;;2.90;1.63;;;7.70;96.00;;;;;;4994728;28;20026;-75
2023/11/21 12:22:56;;;;;;;3.40;1.33;;;7.60;95.40;;;;;;4989323;28;20106;-75
2023/11/21 12:25:28;;;;;;;2.78;1.38;;;7.60;96.10;;;;;;4974304;28;20034;-75
2023/11/21 12:27:55;;;;;;;2.10;1.13;;;7.60;96.40;;;;;;4996397;28;20035;-75
2023/11/21 12:30:22;;;;;;;2.72;1.15;;;7.60;96.40;;;;;;4985937;28;20041;-75
2023/11/21 12:32:51;;;;;;;2.63;1.60;;;7.70;96.80;;;;;;4987687;28;20512;-76
2023/11/21 12:35:19;;;;;;;3.53;1.70;;;7.70;96.10;;;;;;4988464;28;20053;-75
2023/11/21 12:37:45;;;;;;;2.47;1.33;;;7.70;96.40;;;;;;4988692;28;20022;-75
2023/11/21 12:40:11;;;;;;;2.83;1.45;;;7.70;96.20;;;;;;4986832;28;20038;-76
2023/11/21 12:42:42;;;;;;;3.83;1.40;;;7.80;96.60;;;;;;4988393;28;20038;-75
2023/11/21 12:45:17;;;;;;;2.17;1.25;;;7.70;96.60;;;;;;4986336;28;20035;-76
2023/11/21 12:47:56;;;;;;;2.67;1.40;;;7.70;96.60;;;;;;4987527;28;20030;-75
2023/11/21 12:50:23;;;;;;;2.65;1.40;;;7.50;95.90;;;;;;4989165;28;20043;-75
2023/11/21 12:52:50;;;;;;;2.60;1.60;;;7.50;96.40;;;;;;4988241;28;20034;-75
2023/11/21 12:55:17;;;;;;;2.05;1.38;;;7.60;96.50;;;;;;4991284;28;20030;-75
2023/11/21 12:57:49;;;;;;;3.85;1.58;;;7.50;96.10;;;;;;4987846;28;20046;-75